createdAt,value
2023-03-05T00:02:09.107Z,89335.53
2023-03-05T00:04:36.332Z,89340.19
2023-03-05T00:07:03.201Z,89334.75
2023-03-05T00:09:30.059Z,89326.41
2023-03-05T00:11:56.879Z,89324.56
2023-03-05T00:14:23.799Z,89320.94
2023-03-05T00:16:50.879Z,89322.88
2023-03-05T00:19:17.676Z,89328.47
2023-03-05T00:21:44.581Z,89318.22
2023-03-05T00:24:18.556Z,89329.84
2023-03-05T00:26:46.241Z,89329.47
2023-03-05T00:29:16.995Z,89318.72
2023-03-05T00:31:43.916Z,89315.06
2023-03-05T00:34:13.881Z,89320.09
2023-03-05T00:36:42.962Z,89318.16
2023-03-05T00:39:10.546Z,89329.03
2023-03-05T00:41:37.530Z,89326.75
2023-03-05T00:44:04.509Z,89321.97
2023-03-05T00:46:31.345Z,89320.94
2023-03-05T00:48:58.501Z,89314.47
2023-03-05T00:51:25.519Z,89312.84
2023-03-05T00:53:52.520Z,89304.44
2023-03-05T00:56:19.498Z,89304.78
2023-03-05T00:58:46.357Z,89303.06
2023-03-05T01:01:13.798Z,89298.44
2023-03-05T01:03:40.642Z,89287.66
2023-03-05T01:06:09.978Z,89300.03
2023-03-05T01:08:37.383Z,89295.28
2023-03-05T01:11:06.146Z,89293.06
2023-03-05T01:13:32.981Z,89287.47
2023-03-05T01:16:01.015Z,89283.38
2023-03-05T01:18:27.960Z,89285.13
2023-03-05T01:20:54.822Z,89284.75
2023-03-05T01:23:21.837Z,89281.06
2023-03-05T01:25:59.646Z,89272.31
2023-03-05T01:28:28.017Z,89275.34
2023-03-05T01:30:54.957Z,89275.91
2023-03-05T01:33:21.959Z,89269.16
2023-03-05T01:35:49.935Z,89263.94
2023-03-05T01:38:17.024Z,89275.09
2023-03-05T01:40:44.066Z,89264.69
2023-03-05T01:43:10.781Z,89263.13
2023-03-05T01:45:39.202Z,89251.25
2023-03-05T01:48:06.040Z,89259.94
2023-03-05T01:50:33.977Z,89266.78
2023-03-05T01:53:04.250Z,89267.25
2023-03-05T01:55:34.744Z,89272.00
2023-03-05T01:58:10.101Z,89274.91
2023-03-05T02:00:52.750Z,89273.28
2023-03-05T02:03:22.055Z,89281.13
2023-03-05T02:05:49.227Z,89281.50
2023-03-05T02:08:20.724Z,89280.19
2023-03-05T02:10:55.202Z,89277.00
2023-03-05T02:13:34.503Z,89288.31
2023-03-05T02:16:02.543Z,89293.72
2023-03-05T02:18:29.368Z,89288.34
2023-03-05T02:20:56.156Z,89287.34
2023-03-05T02:23:26.509Z,89292.28
2023-03-05T02:25:53.643Z,89288.63
2023-03-05T02:28:27.970Z,89291.91
2023-03-05T02:30:54.813Z,89282.41
2023-03-05T02:33:21.661Z,89273.91
2023-03-05T02:35:48.586Z,89279.09
2023-03-05T02:38:17.869Z,89279.66
2023-03-05T02:40:44.822Z,89274.47
2023-03-05T02:43:12.524Z,89260.56
2023-03-05T02:45:39.654Z,89271.81
2023-03-05T02:48:06.941Z,89277.84
2023-03-05T02:50:34.757Z,89274.09
2023-03-05T02:53:01.749Z,89268.09
2023-03-05T02:55:28.578Z,89271.53
2023-03-05T02:57:55.605Z,89265.38
2023-03-05T03:00:22.590Z,89266.19
2023-03-05T03:02:49.396Z,89264.88
2023-03-05T03:05:16.387Z,89261.25
2023-03-05T03:07:43.329Z,89260.53
2023-03-05T03:10:11.058Z,89251.22
2023-03-05T03:12:40.136Z,89260.41
2023-03-05T03:15:08.738Z,89253.06
2023-03-05T03:17:37.257Z,89255.88
2023-03-05T03:20:09.527Z,89257.13
2023-03-05T03:22:36.739Z,89247.50
2023-03-05T03:25:05.447Z,89253.81
2023-03-05T03:27:32.524Z,89260.69
2023-03-05T03:29:59.692Z,89256.50
2023-03-05T03:32:26.648Z,89245.16
2023-03-05T03:34:53.649Z,89259.69
2023-03-05T03:37:20.731Z,89258.00
2023-03-05T03:39:47.655Z,89255.44
2023-03-05T03:42:17.890Z,89261.22
2023-03-05T03:44:44.758Z,89263.56
2023-03-05T03:47:11.686Z,89266.59
2023-03-05T03:49:38.682Z,89269.59
2023-03-05T03:52:05.845Z,89271.16
2023-03-05T03:54:33.335Z,89266.84
2023-03-05T03:57:00.241Z,89265.75
2023-03-05T03:59:27.129Z,89263.50
2023-03-05T04:01:53.964Z,89259.88
2023-03-05T04:04:20.947Z,89255.59
2023-03-05T04:06:47.886Z,89248.22
2023-03-05T04:09:14.774Z,89243.75
2023-03-05T04:11:41.628Z,89235.66
2023-03-05T04:14:08.479Z,89239.09
2023-03-05T04:16:35.423Z,89237.75
2023-03-05T04:19:02.361Z,89235.44
2023-03-05T04:21:29.189Z,89229.31
2023-03-05T04:23:55.948Z,89229.50
2023-03-05T04:26:22.692Z,89225.88
2023-03-05T04:28:49.538Z,89227.38
2023-03-05T04:31:16.335Z,89236.53
2023-03-05T04:33:43.321Z,89228.13
2023-03-05T04:36:10.191Z,89246.22
2023-03-05T04:38:37.045Z,89244.59
2023-03-05T04:41:04.055Z,89241.56
2023-03-05T04:43:31.034Z,89243.50
2023-03-05T04:45:57.848Z,89241.47
2023-03-05T04:48:24.783Z,89250.31
2023-03-05T04:50:51.702Z,89257.63
2023-03-05T04:53:18.574Z,89244.44
2023-03-05T04:55:45.608Z,89249.75
2023-03-05T04:58:12.433Z,89244.53
2023-03-05T05:00:39.308Z,89246.81
2023-03-05T05:03:06.322Z,89252.38
2023-03-05T05:05:33.311Z,89250.59
2023-03-05T05:08:00.180Z,89248.75
2023-03-05T05:10:27.728Z,89255.31
2023-03-05T05:12:54.630Z,89246.97
2023-03-05T05:15:21.670Z,89245.06
2023-03-05T05:17:48.696Z,89246.75
2023-03-05T05:20:17.549Z,89247.59
2023-03-05T05:22:44.692Z,89243.56
2023-03-05T05:25:11.973Z,89245.50
2023-03-05T05:27:42.867Z,89249.38
2023-03-05T05:30:10.320Z,89256.25
2023-03-05T05:32:37.233Z,89251.53
2023-03-05T05:35:04.417Z,89255.00
2023-03-05T05:37:31.244Z,89261.47
2023-03-05T05:39:58.415Z,89252.59
2023-03-05T05:42:25.620Z,89263.72
2023-03-05T05:44:52.770Z,89272.13
2023-03-05T05:47:19.736Z,89266.19
2023-03-05T05:49:46.642Z,89275.03
2023-03-05T05:52:14.058Z,89271.75
2023-03-05T05:54:40.904Z,89267.59
2023-03-05T05:57:07.985Z,89262.13
2023-03-05T05:59:35.046Z,89263.06
2023-03-05T06:02:02.075Z,89265.41
2023-03-05T06:04:29.007Z,89269.16
2023-03-05T06:06:56.002Z,89266.31
2023-03-05T06:09:26.400Z,89265.56
2023-03-05T06:11:54.342Z,89272.28
2023-03-05T06:14:21.243Z,89268.28
2023-03-05T06:16:48.314Z,89282.06
2023-03-05T06:19:16.133Z,89285.00
2023-03-05T06:21:43.294Z,89279.69
2023-03-05T06:24:10.636Z,89284.53
2023-03-05T06:26:37.464Z,89276.16
2023-03-05T06:29:04.286Z,89279.63
2023-03-05T06:31:31.303Z,89281.06
2023-03-05T06:34:00.089Z,89275.69
2023-03-05T06:36:27.775Z,89276.16
2023-03-05T06:38:55.971Z,89275.25
2023-03-05T06:41:29.607Z,89284.91
2023-03-05T06:43:57.231Z,89274.63
2023-03-05T06:46:27.051Z,89269.94
2023-03-05T06:48:56.775Z,89264.38
2023-03-05T06:51:29.352Z,89264.56
2023-03-05T06:54:00.830Z,89259.75
2023-03-05T06:56:27.774Z,89252.78
2023-03-05T06:58:54.731Z,89249.34
2023-03-05T07:01:22.311Z,89239.13
2023-03-05T07:03:50.985Z,89238.75
2023-03-05T07:06:17.919Z,89242.84
2023-03-05T07:08:45.033Z,89254.00
2023-03-05T07:11:13.973Z,89243.50
2023-03-05T07:13:41.127Z,89234.34
2023-03-05T07:16:10.227Z,89237.00
2023-03-05T07:18:37.205Z,89233.72
2023-03-05T07:21:08.402Z,89233.00
2023-03-05T07:23:36.513Z,89233.78
2023-03-05T07:26:04.942Z,89233.78
2023-03-05T07:28:32.798Z,89229.69
2023-03-05T07:31:02.684Z,89225.69
2023-03-05T07:33:29.635Z,89227.19
2023-03-05T07:35:56.780Z,89219.53
2023-03-05T07:38:24.085Z,89220.16
2023-03-05T07:40:51.347Z,89207.91
2023-03-05T07:43:18.324Z,89200.81
2023-03-05T07:45:46.770Z,89189.13
2023-03-05T07:48:16.766Z,89190.28
2023-03-05T07:50:44.431Z,89196.31
2023-03-05T07:53:11.503Z,89202.53
2023-03-05T07:55:48.097Z,89195.75
2023-03-05T07:58:15.200Z,89200.94
2023-03-05T08:00:42.035Z,89200.94
2023-03-05T08:03:08.880Z,89192.97
2023-03-05T08:05:38.723Z,89190.16
2023-03-05T08:08:08.434Z,89182.56
2023-03-05T08:10:36.607Z,89181.47
2023-03-05T08:13:03.946Z,89180.03
2023-03-05T08:15:30.852Z,89176.28
2023-03-05T08:17:58.171Z,89172.56
2023-03-05T08:20:25.082Z,89176.13
2023-03-05T08:22:52.053Z,89164.88
2023-03-05T08:25:19.066Z,89164.63
2023-03-05T08:27:48.372Z,89155.50
2023-03-05T08:30:20.607Z,89149.09
2023-03-05T08:32:49.940Z,89153.94
2023-03-05T08:35:16.777Z,89152.69
2023-03-05T08:37:43.622Z,89154.78
2023-03-05T08:40:11.116Z,89151.16
2023-03-05T08:42:38.240Z,89149.13
2023-03-05T08:45:05.493Z,89157.38
2023-03-05T08:47:32.339Z,89146.19
2023-03-05T08:50:00.203Z,89144.78
2023-03-05T08:52:27.137Z,89152.59
2023-03-05T08:54:54.131Z,89152.78
2023-03-05T08:57:21.057Z,89143.13
2023-03-05T08:59:48.366Z,89138.38
2023-03-05T09:02:15.249Z,89141.25
2023-03-05T09:04:42.089Z,89131.44
2023-03-05T09:07:09.367Z,89134.28
2023-03-05T09:09:37.403Z,89139.53
2023-03-05T09:12:04.789Z,89127.13
2023-03-05T09:14:31.676Z,89129.81
2023-03-05T09:16:59.127Z,89120.44
2023-03-05T09:19:26.435Z,89115.16
2023-03-05T09:21:55.356Z,89130.09
2023-03-05T09:24:23.720Z,89125.19
2023-03-05T09:26:50.481Z,89113.72
2023-03-05T09:29:17.303Z,89114.53
2023-03-05T09:31:44.378Z,89105.41
2023-03-05T09:34:12.038Z,89099.69
2023-03-05T09:36:39.018Z,89095.06
2023-03-05T09:39:05.912Z,89085.03
2023-03-05T09:41:46.107Z,89097.19
2023-03-05T09:44:22.919Z,89099.41
2023-03-05T09:47:07.768Z,89092.13
2023-03-05T09:50:00.557Z,89085.84
2023-03-05T09:52:45.082Z,89074.78
2023-03-05T09:55:23.926Z,89066.50
2023-03-05T09:57:54.472Z,89058.25
2023-03-05T10:00:30.156Z,89054.28
2023-03-05T10:03:01.653Z,89061.13
2023-03-05T10:05:43.624Z,89053.56
2023-03-05T10:08:10.561Z,89039.91
2023-03-05T10:10:42.000Z,89044.47
2023-03-05T10:13:20.146Z,89040.53
2023-03-05T10:16:24.320Z,89033.25
2023-03-05T10:19:11.080Z,89014.25
2023-03-05T10:22:07.686Z,89002.34
2023-03-05T10:24:41.706Z,88998.97
2023-03-05T10:27:22.578Z,88996.69
2023-03-05T10:29:52.528Z,88987.28
2023-03-05T10:32:34.603Z,88983.25
2023-03-05T10:35:24.495Z,88976.50
2023-03-05T10:38:08.832Z,88971.19
2023-03-05T10:40:51.676Z,88976.19
2023-03-05T10:43:51.658Z,88974.75
2023-03-05T10:46:22.717Z,88966.78
2023-03-05T10:48:52.053Z,88963.00
2023-03-05T10:51:39.737Z,88961.75
2023-03-05T10:54:23.221Z,88965.34
2023-03-05T10:57:05.124Z,88956.63
2023-03-05T10:59:48.757Z,88958.28
2023-03-05T11:02:31.223Z,88950.56
2023-03-05T11:05:01.808Z,88944.28
2023-03-05T11:07:33.042Z,88948.06
2023-03-05T11:10:26.064Z,88958.03
2023-03-05T11:12:53.264Z,88947.34
2023-03-05T11:15:30.863Z,88941.53
2023-03-05T11:18:27.189Z,88936.09
2023-03-05T11:21:08.799Z,88932.59
2023-03-05T11:23:35.937Z,88939.41
2023-03-05T11:26:23.184Z,88929.69
2023-03-05T11:28:57.506Z,88930.63
2023-03-05T11:31:28.552Z,88927.59
2023-03-05T11:34:07.190Z,88933.22
2023-03-05T11:36:42.291Z,88928.06
2023-03-05T11:39:15.594Z,88923.59
2023-03-05T11:41:51.469Z,88920.06
2023-03-05T11:44:25.351Z,88915.97
2023-03-05T11:47:03.613Z,88907.09
2023-03-05T11:49:32.933Z,88928.25
2023-03-05T11:52:07.390Z,88900.56
2023-03-05T11:54:48.355Z,88907.63
2023-03-05T11:57:16.980Z,88901.00
2023-03-05T11:59:44.759Z,88891.88
2023-03-05T12:02:24.224Z,88899.50
2023-03-05T12:04:51.835Z,88898.88
2023-03-05T12:07:30.991Z,88891.88
2023-03-05T12:09:57.824Z,88898.78
2023-03-05T12:12:40.111Z,88890.41
2023-03-05T12:15:13.020Z,88894.22
2023-03-05T12:17:59.509Z,88886.56
2023-03-05T12:21:02.072Z,88876.22
2023-03-05T12:23:29.009Z,88872.50
2023-03-05T12:25:58.402Z,88873.03
2023-03-05T12:28:34.185Z,88869.19
2023-03-05T12:31:02.939Z,88870.75
2023-03-05T12:33:40.459Z,88877.16
2023-03-05T12:36:22.535Z,88867.69
2023-03-05T12:38:56.643Z,88851.56
2023-03-05T12:41:23.497Z,88850.38
2023-03-05T12:44:05.840Z,88837.03
2023-03-05T12:46:38.758Z,88839.25
2023-03-05T12:49:20.928Z,88842.06
2023-03-05T12:51:52.834Z,88845.72
2023-03-05T12:54:28.553Z,88836.31
2023-03-05T12:56:58.191Z,88843.97
2023-03-05T12:59:51.596Z,88827.56
2023-03-05T13:02:28.099Z,88827.88
2023-03-05T13:05:00.792Z,88819.47
2023-03-05T13:07:27.725Z,88823.00
2023-03-05T13:09:59.969Z,88822.69
2023-03-05T13:12:29.068Z,88823.22
2023-03-05T13:15:03.127Z,88820.31
2023-03-05T13:17:38.188Z,88813.38
2023-03-05T13:20:32.917Z,88812.19
2023-03-05T13:23:17.514Z,88807.34
2023-03-05T13:25:45.876Z,88793.78
2023-03-05T13:28:16.713Z,88796.06
2023-03-05T13:30:50.594Z,88793.31
2023-03-05T13:33:22.654Z,88794.97
2023-03-05T13:35:49.470Z,88791.59
2023-03-05T13:38:36.849Z,88785.03
2023-03-05T13:41:11.469Z,88790.53
2023-03-05T13:43:57.079Z,88781.03
2023-03-05T13:46:38.598Z,88778.28
2023-03-05T13:49:27.702Z,88782.66
2023-03-05T13:51:56.949Z,88776.31
2023-03-05T13:54:25.584Z,88770.75
2023-03-05T13:56:58.154Z,88773.69
2023-03-05T13:59:27.966Z,88759.28
2023-03-05T14:01:56.697Z,88756.91
2023-03-05T14:04:30.012Z,88748.03
2023-03-05T14:07:03.789Z,88748.31
2023-03-05T14:09:39.983Z,88730.09
2023-03-05T14:12:15.986Z,88728.34
2023-03-05T14:14:45.102Z,88722.84
2023-03-05T14:17:44.065Z,88713.47
2023-03-05T14:20:26.808Z,88712.09
2023-03-05T14:23:02.451Z,88712.50
2023-03-05T14:25:31.820Z,88704.91
2023-03-05T14:27:58.764Z,88696.84
2023-03-05T14:30:26.624Z,88698.81
2023-03-05T14:32:55.874Z,88697.22
2023-03-05T14:35:25.994Z,88698.94
2023-03-05T14:37:55.691Z,88688.31
2023-03-05T14:40:29.128Z,88684.53
2023-03-05T14:43:01.401Z,88675.47
2023-03-05T14:45:34.889Z,88671.28
2023-03-05T14:48:03.636Z,88675.72
2023-03-05T14:50:37.136Z,88656.63
2023-03-05T14:53:14.212Z,88654.34
2023-03-05T14:55:41.556Z,88646.22
2023-03-05T14:58:14.964Z,88651.34
2023-03-05T15:00:42.870Z,88643.78
2023-03-05T15:03:15.172Z,88645.72
2023-03-05T15:05:44.027Z,88653.50
2023-03-05T15:08:17.318Z,88647.31
2023-03-05T15:10:44.648Z,88650.59
2023-03-05T15:13:13.551Z,88647.22
2023-03-05T15:15:41.624Z,88641.09
2023-03-05T15:18:13.870Z,88631.31
2023-03-05T15:20:40.886Z,88630.59
2023-03-05T15:23:07.995Z,88640.91
2023-03-05T15:25:37.081Z,88621.84
2023-03-05T15:28:04.042Z,88626.00
2023-03-05T15:30:34.438Z,88611.84
2023-03-05T15:33:03.571Z,88606.16
2023-03-05T15:35:33.751Z,88576.31
2023-03-05T15:38:01.772Z,88568.91
2023-03-05T15:40:29.122Z,88547.22
2023-03-05T15:42:56.976Z,88541.63
2023-03-05T15:45:24.067Z,88525.19
2023-03-05T15:47:52.754Z,88548.03
2023-03-05T15:50:21.477Z,88566.34
2023-03-05T15:52:49.401Z,88561.97
2023-03-05T15:55:16.517Z,88575.34
2023-03-05T15:57:45.287Z,88573.00
2023-03-05T16:00:14.107Z,88571.78
2023-03-05T16:02:40.978Z,88576.38
2023-03-05T16:05:08.619Z,88582.63
2023-03-05T16:07:39.146Z,88574.31
2023-03-05T16:10:07.105Z,88570.13
2023-03-05T16:12:39.060Z,88577.06
2023-03-05T16:15:07.250Z,88566.09
2023-03-05T16:17:34.494Z,88573.75
2023-03-05T16:20:01.476Z,88573.22
2023-03-05T16:22:28.337Z,88570.69
2023-03-05T16:24:55.159Z,88567.97
2023-03-05T16:27:22.017Z,88571.97
2023-03-05T16:29:48.898Z,88573.78
2023-03-05T16:32:15.743Z,88578.00
2023-03-05T16:34:43.118Z,88559.06
2023-03-05T16:37:10.277Z,88557.25
2023-03-05T16:39:37.122Z,88574.91
2023-03-05T16:42:04.246Z,88576.69
2023-03-05T16:44:31.128Z,88553.69
2023-03-05T16:46:58.357Z,88554.31
2023-03-05T16:49:25.328Z,88542.09
2023-03-05T16:51:52.246Z,88522.53
2023-03-05T16:54:19.169Z,88530.91
2023-03-05T16:56:46.150Z,88537.91
2023-03-05T16:59:14.029Z,88533.81
2023-03-05T17:01:40.945Z,88533.28
2023-03-05T17:04:07.862Z,88532.94
2023-03-05T17:06:35.264Z,88520.19
2023-03-05T17:09:03.687Z,88521.81
2023-03-05T17:11:30.725Z,88514.16
2023-03-05T17:13:57.606Z,88510.94
2023-03-05T17:16:24.968Z,88505.38
2023-03-05T17:18:52.024Z,88496.22
2023-03-05T17:21:19.366Z,88496.13
2023-03-05T17:23:46.250Z,88487.06
2023-03-05T17:26:16.357Z,88486.59
2023-03-05T17:28:44.180Z,88483.81
2023-03-05T17:31:15.705Z,88478.84
2023-03-05T17:33:43.740Z,88481.84
2023-03-05T17:36:20.977Z,88483.34
2023-03-05T17:38:50.184Z,88480.53
2023-03-05T17:41:21.695Z,88480.19
2023-03-05T17:43:49.035Z,88466.56
2023-03-05T17:46:16.916Z,88462.78
2023-03-05T17:48:44.210Z,88461.09
2023-03-05T17:51:13.460Z,88458.44
2023-03-05T17:53:44.208Z,88452.13
2023-03-05T17:56:13.357Z,88450.69
2023-03-05T17:58:42.862Z,88456.16
2023-03-05T18:01:10.090Z,88451.56
2023-03-05T18:03:37.600Z,88447.72
2023-03-05T18:06:05.045Z,88450.41
2023-03-05T18:08:32.483Z,88443.28
2023-03-05T18:11:00.630Z,88448.19
2023-03-05T18:13:27.878Z,88443.31
2023-03-05T18:15:59.377Z,88446.50
2023-03-05T18:18:26.916Z,88451.09
2023-03-05T18:20:54.442Z,88448.47
2023-03-05T18:23:21.616Z,88447.47
2023-03-05T18:25:48.523Z,88447.13
2023-03-05T18:28:16.398Z,88449.50
2023-03-05T18:30:45.400Z,88444.81
2023-03-05T18:33:24.839Z,88444.28
2023-03-05T18:35:54.561Z,88443.41
2023-03-05T18:38:23.115Z,88432.59
2023-03-05T18:40:54.695Z,88440.59
2023-03-05T18:43:23.745Z,88439.16
2023-03-05T18:45:52.644Z,88444.59
2023-03-05T18:48:20.617Z,88437.59
2023-03-05T18:50:51.091Z,88444.47
2023-03-05T18:53:18.086Z,88437.22
2023-03-05T18:55:45.196Z,88430.91
2023-03-05T18:58:12.933Z,88425.25
2023-03-05T19:00:40.278Z,88427.56
2023-03-05T19:03:07.696Z,88422.84
2023-03-05T19:05:35.842Z,88426.75
2023-03-05T19:08:03.274Z,88428.25
2023-03-05T19:10:32.969Z,88431.00
2023-03-05T19:13:27.500Z,88428.78
2023-03-05T19:15:54.559Z,88425.72
2023-03-05T19:19:25.770Z,88429.19
2023-03-05T19:21:55.288Z,88423.59
2023-03-05T19:24:23.886Z,88429.91
2023-03-05T19:26:52.984Z,88425.66
2023-03-05T19:29:20.245Z,88425.59
2023-03-05T19:31:47.442Z,88420.59
2023-03-05T19:34:15.468Z,88423.06
2023-03-05T19:36:42.944Z,88434.59
2023-03-05T19:39:10.442Z,88426.66
2023-03-05T19:41:37.716Z,88410.50
2023-03-05T19:44:05.446Z,88405.78
2023-03-05T19:46:32.727Z,88411.19
2023-03-05T19:49:02.084Z,88404.88
2023-03-05T19:51:30.468Z,88412.28
2023-03-05T19:54:00.712Z,88406.81
2023-03-05T19:56:30.559Z,88407.13
2023-03-05T19:58:57.619Z,88398.56
2023-03-05T20:01:27.305Z,88379.06
2023-03-05T20:03:57.410Z,88371.91
2023-03-05T20:06:25.502Z,88365.63
2023-03-05T20:08:53.424Z,88368.22
2023-03-05T20:11:21.483Z,88357.66
2023-03-05T20:13:48.699Z,88351.84
2023-03-05T20:16:31.049Z,88347.78
2023-03-05T20:18:59.349Z,88357.34
2023-03-05T20:21:32.086Z,88354.97
2023-03-05T20:24:03.333Z,88345.28
2023-03-05T20:26:35.582Z,88318.13
2023-03-05T20:29:04.550Z,88333.28
2023-03-05T20:31:33.167Z,88346.47
2023-03-05T20:34:00.157Z,88358.22
2023-03-05T20:36:27.331Z,88369.28
2023-03-05T20:38:54.289Z,88368.09
2023-03-05T20:41:21.361Z,88359.28
2023-03-05T20:43:49.605Z,88356.16
2023-03-05T20:46:23.978Z,88339.84
2023-03-05T20:48:53.810Z,88331.16
2023-03-05T20:51:23.519Z,88322.59
2023-03-05T20:54:05.363Z,88344.91
2023-03-05T20:56:33.933Z,88355.28
2023-03-05T20:59:02.608Z,88345.94
2023-03-05T21:01:30.722Z,88339.44
2023-03-05T21:03:57.877Z,88338.66
2023-03-05T21:06:26.287Z,88330.97
2023-03-05T21:08:53.499Z,88330.50
2023-03-05T21:11:20.543Z,88325.16
2023-03-05T21:13:47.698Z,88337.44
2023-03-05T21:16:22.315Z,88347.19
2023-03-05T21:18:49.376Z,88344.78
2023-03-05T21:21:16.225Z,88340.16
2023-03-05T21:23:43.158Z,88354.06
2023-03-05T21:26:10.036Z,88355.00
2023-03-05T21:28:39.085Z,88359.56
2023-03-05T21:31:13.770Z,88355.00
2023-03-05T21:33:40.761Z,88336.78
2023-03-05T21:36:07.909Z,88329.81
2023-03-05T21:38:34.768Z,88312.53
2023-03-05T21:41:02.410Z,88310.34
2023-03-05T21:43:29.905Z,88307.00
2023-03-05T21:45:57.310Z,88322.81
2023-03-05T21:48:25.078Z,88328.06
2023-03-05T21:50:52.776Z,88322.06
2023-03-05T21:53:20.463Z,88322.06
2023-03-05T21:55:47.994Z,88319.59
2023-03-05T21:58:14.975Z,88325.81
2023-03-05T22:00:41.894Z,88321.72
2023-03-05T22:03:08.758Z,88325.28
2023-03-05T22:05:35.614Z,88321.88
2023-03-05T22:08:02.606Z,88334.06
2023-03-05T22:10:29.460Z,88338.34
2023-03-05T22:12:59.881Z,88336.19
2023-03-05T22:15:26.831Z,88346.72
2023-03-05T22:17:53.678Z,88342.38
2023-03-05T22:20:20.624Z,88339.78
2023-03-05T22:22:47.529Z,88340.00
2023-03-05T22:25:15.564Z,88338.09
2023-03-05T22:27:43.952Z,88328.34
2023-03-05T22:30:12.416Z,88310.66
2023-03-05T22:32:39.438Z,88311.66
2023-03-05T22:35:07.449Z,88298.97
2023-03-05T22:37:34.361Z,88288.66
2023-03-05T22:40:01.213Z,88293.63
2023-03-05T22:42:28.325Z,88283.50
2023-03-05T22:44:58.855Z,88293.06
2023-03-05T22:47:26.299Z,88293.53
2023-03-05T22:49:53.778Z,88299.66
2023-03-05T22:52:20.693Z,88325.13
2023-03-05T22:54:47.506Z,88311.88
2023-03-05T22:57:14.464Z,88328.59
2023-03-05T22:59:41.340Z,88330.44
2023-03-05T23:02:08.314Z,88333.47
2023-03-05T23:04:45.906Z,88335.44
2023-03-05T23:07:12.693Z,88320.16
2023-03-05T23:09:39.543Z,88326.34
2023-03-05T23:12:06.969Z,88335.44
2023-03-05T23:14:33.763Z,88330.56
2023-03-05T23:17:00.624Z,88339.84
2023-03-05T23:19:27.590Z,88345.19
2023-03-05T23:21:54.445Z,88351.22
2023-03-05T23:24:21.272Z,88353.03
2023-03-05T23:26:48.192Z,88342.06
2023-03-05T23:29:45.063Z,88345.69
2023-03-05T23:32:11.942Z,88352.66
2023-03-05T23:34:38.946Z,88362.34
2023-03-05T23:37:05.895Z,88361.63
2023-03-05T23:39:32.814Z,88354.38
2023-03-05T23:41:59.613Z,88365.31
2023-03-05T23:44:26.466Z,88367.22
2023-03-05T23:46:53.371Z,88369.69
2023-03-05T23:49:20.180Z,88372.25
2023-03-05T23:51:47.006Z,88376.97
2023-03-05T23:54:13.889Z,88377.69
2023-03-05T23:56:40.733Z,88375.16
2023-03-05T23:59:07.504Z,88379.69
